Terminal Aerodrome Forecast
Issued by NWS

Home | Current Version | Previous Version | Text Only | Print | Product List | Glossary On
Versions: 1 2 3 4 5 6 7 8 9 10 11 12
000
FTUS42 KTBW 231139
TAFLAL
TAF
KLAL 231139Z 2312/2412 VRB03KT P6SM SCT030 BKN100
     FM231600 VRB06KT P6SM VCTS FEW020CB SCT030 BKN070
     FM232000 29008KT P6SM VCSH SCT035 BKN050
     FM240200 29004KT P6SM BKN050 OVC100
     FM241000 25004KT P6SM FEW015 SCT025=

USA.gov is the U.S. government's official web portal to all federal, state and local government web resources and services.